createdAt,value
2023-03-17T00:01:19.846Z,3.75
2023-03-17T00:03:49.824Z,5.05
2023-03-17T00:06:28.514Z,3.03
2023-03-17T00:08:55.456Z,4.65
2023-03-17T00:11:22.216Z,5.18
2023-03-17T00:13:49.261Z,2.75
2023-03-17T00:16:25.644Z,4.30
2023-03-17T00:18:54.173Z,2.70
2023-03-17T00:21:32.659Z,4.13
2023-03-17T00:23:59.630Z,4.13
2023-03-17T00:26:27.667Z,8.00
2023-03-17T00:28:55.143Z,3.63
2023-03-17T00:31:25.168Z,5.30
2023-03-17T00:36:24.062Z,3.78
2023-03-17T00:41:18.370Z,4.88
2023-03-17T00:43:45.591Z,4.30
2023-03-17T00:46:14.749Z,8.40
2023-03-17T00:48:43.492Z,3.73
2023-03-17T00:51:10.886Z,4.30
2023-03-17T00:53:37.743Z,4.75
2023-03-17T00:56:06.454Z,5.90
2023-03-17T00:58:34.201Z,2.90
2023-03-17T01:01:01.465Z,3.90
2023-03-17T01:03:28.390Z,3.45
2023-03-17T01:05:57.808Z,4.20
2023-03-17T01:08:26.067Z,2.63
2023-03-17T01:10:52.870Z,3.83
2023-03-17T01:13:19.445Z,5.55
2023-03-17T01:15:48.628Z,6.85
2023-03-17T01:18:17.875Z,4.30
2023-03-17T01:20:44.798Z,9.90
2023-03-17T01:23:12.248Z,3.40
2023-03-17T01:25:40.470Z,4.78
2023-03-17T01:28:07.854Z,4.65
2023-03-17T01:30:38.528Z,4.95
2023-03-17T01:33:08.544Z,14.55
2023-03-17T01:35:36.865Z,44.40
2023-03-17T01:38:04.330Z,35.65
2023-03-17T01:40:34.255Z,57.45
2023-03-17T01:43:16.258Z,91.57
2023-03-17T01:46:14.688Z,30.23
2023-03-17T01:48:43.034Z,13.27
2023-03-17T01:51:13.784Z,6.57
2023-03-17T01:53:41.946Z,11.55
2023-03-17T01:56:08.494Z,19.27
2023-03-17T01:58:35.445Z,21.95
2023-03-17T02:01:01.975Z,15.57
2023-03-17T02:03:29.831Z,9.02
2023-03-17T02:05:59.019Z,10.00
2023-03-17T02:08:26.340Z,5.73
2023-03-17T02:10:56.357Z,5.13
2023-03-17T02:13:24.084Z,9.25
2023-03-17T02:15:52.226Z,6.97
2023-03-17T02:18:21.832Z,6.38
2023-03-17T02:20:48.247Z,4.05
2023-03-17T02:23:25.732Z,7.70
2023-03-17T02:25:53.930Z,7.45
2023-03-17T02:28:26.033Z,5.47
2023-03-17T02:30:52.774Z,8.90
2023-03-17T02:33:19.325Z,9.05
2023-03-17T02:35:46.195Z,6.13
2023-03-17T02:38:12.720Z,5.82
2023-03-17T02:40:39.249Z,5.47
2023-03-17T02:43:05.767Z,6.15
2023-03-17T02:45:32.325Z,7.30
2023-03-17T02:47:59.437Z,4.57
2023-03-17T02:50:28.974Z,6.47
2023-03-17T02:52:56.036Z,5.55
2023-03-17T02:55:22.976Z,5.97
2023-03-17T02:57:49.457Z,4.03
2023-03-17T03:00:16.273Z,6.60
2023-03-17T03:02:42.834Z,6.57
2023-03-17T03:05:10.722Z,4.60
2023-03-17T03:07:37.466Z,4.18
2023-03-17T03:10:05.523Z,6.22
2023-03-17T03:12:32.138Z,7.45
2023-03-17T03:14:58.925Z,9.23
2023-03-17T03:17:25.448Z,7.15
2023-03-17T03:19:52.341Z,6.15
2023-03-17T03:22:19.039Z,6.90
2023-03-17T03:24:45.521Z,4.00
2023-03-17T03:27:12.073Z,4.35
2023-03-17T03:29:39.227Z,7.68
2023-03-17T03:32:06.601Z,5.55
2023-03-17T03:34:33.214Z,4.28
2023-03-17T03:36:59.889Z,7.00
2023-03-17T03:39:26.607Z,5.38
2023-03-17T03:41:57.313Z,4.80
2023-03-17T03:44:24.483Z,4.30
2023-03-17T03:46:51.807Z,6.50
2023-03-17T03:49:18.391Z,5.43
2023-03-17T03:51:44.875Z,4.85
2023-03-17T03:54:11.388Z,6.13
2023-03-17T03:56:37.936Z,5.00
2023-03-17T03:59:04.442Z,4.22
2023-03-17T04:01:31.485Z,4.88
2023-03-17T04:03:58.001Z,7.22
2023-03-17T04:06:24.583Z,6.28
2023-03-17T04:08:51.092Z,6.45
2023-03-17T04:11:17.904Z,6.20
2023-03-17T04:13:44.458Z,5.85
2023-03-17T04:16:11.107Z,4.15
2023-03-17T04:18:37.742Z,5.90
2023-03-17T04:21:10.287Z,8.32
2023-03-17T04:23:37.046Z,5.18
2023-03-17T04:26:04.239Z,5.65
2023-03-17T04:28:31.205Z,6.57
2023-03-17T04:30:57.664Z,6.03
2023-03-17T04:33:24.289Z,7.15
2023-03-17T04:35:51.335Z,6.07
2023-03-17T04:38:17.914Z,6.93
2023-03-17T04:40:44.418Z,6.25
2023-03-17T04:43:10.954Z,9.27
2023-03-17T04:45:37.857Z,4.95
2023-03-17T04:48:05.136Z,6.45
2023-03-17T04:50:33.310Z,5.90
2023-03-17T04:53:00.109Z,6.07
2023-03-17T04:55:27.519Z,4.75
2023-03-17T04:57:54.117Z,4.85
2023-03-17T05:00:21.309Z,13.00
2023-03-17T05:02:47.896Z,5.43
2023-03-17T05:05:14.373Z,7.43
2023-03-17T05:07:41.629Z,6.28
2023-03-17T05:10:09.382Z,10.48
2023-03-17T05:12:35.921Z,4.35
2023-03-17T05:15:02.729Z,8.00
2023-03-17T05:17:29.228Z,4.88
2023-03-17T05:19:55.837Z,5.00
2023-03-17T05:22:22.338Z,5.75
2023-03-17T05:24:48.916Z,9.60
2023-03-17T05:27:15.559Z,6.95
2023-03-17T05:29:42.397Z,5.03
2023-03-17T05:32:09.071Z,5.70
2023-03-17T05:34:35.622Z,6.53
2023-03-17T05:37:02.158Z,6.93
2023-03-17T05:39:28.706Z,4.93
2023-03-17T05:41:55.393Z,5.60
2023-03-17T05:44:21.916Z,4.50
2023-03-17T05:46:48.411Z,4.22
2023-03-17T05:49:15.315Z,5.78
2023-03-17T05:51:42.252Z,4.30
2023-03-17T05:54:08.776Z,5.65
2023-03-17T05:56:35.921Z,6.32
2023-03-17T05:59:02.713Z,4.40
2023-03-17T06:01:29.615Z,5.95
2023-03-17T06:03:56.291Z,5.38
2023-03-17T06:06:24.560Z,5.00
2023-03-17T06:08:51.678Z,6.32
2023-03-17T06:11:20.628Z,3.70
2023-03-17T06:13:47.623Z,4.80
2023-03-17T06:16:14.333Z,2.75
2023-03-17T06:18:41.056Z,4.90
2023-03-17T06:21:08.252Z,3.60
2023-03-17T06:23:34.827Z,5.50
2023-03-17T06:26:01.601Z,5.22
2023-03-17T06:28:28.144Z,5.53
2023-03-17T06:30:54.759Z,3.33
2023-03-17T06:33:21.935Z,3.15
2023-03-17T06:35:48.525Z,3.85
2023-03-17T06:38:15.123Z,2.85
2023-03-17T06:40:41.771Z,3.63
2023-03-17T06:43:08.443Z,3.05
2023-03-17T06:45:35.567Z,4.13
2023-03-17T06:48:02.359Z,4.57
2023-03-17T06:50:29.135Z,3.38
2023-03-17T06:52:56.007Z,3.10
2023-03-17T06:55:22.554Z,3.15
2023-03-17T06:57:51.054Z,2.90
2023-03-17T07:00:18.818Z,2.55
2023-03-17T07:02:45.950Z,3.75
2023-03-17T07:05:13.944Z,3.40
2023-03-17T07:07:41.286Z,2.78
2023-03-17T07:10:10.344Z,2.72
2023-03-17T07:12:37.611Z,3.65
2023-03-17T07:15:04.655Z,2.28
2023-03-17T07:17:31.227Z,3.25
2023-03-17T07:19:57.742Z,2.47
2023-03-17T07:22:24.306Z,2.53
2023-03-17T07:24:51.893Z,3.85
2023-03-17T07:27:20.830Z,3.65
2023-03-17T07:29:49.296Z,3.92
2023-03-17T07:32:15.847Z,3.13
2023-03-17T07:34:42.673Z,2.60
2023-03-17T07:37:10.381Z,2.33
2023-03-17T07:39:37.007Z,2.45
2023-03-17T07:42:03.657Z,2.55
2023-03-17T07:44:30.483Z,5.45
2023-03-17T07:46:57.467Z,3.25
2023-03-17T07:49:40.038Z,6.03
2023-03-17T07:52:08.536Z,3.20
2023-03-17T07:54:36.251Z,6.43
2023-03-17T07:57:03.505Z,9.85
2023-03-17T07:59:30.272Z,5.22
2023-03-17T08:01:58.150Z,5.60
2023-03-17T08:04:24.714Z,7.43
2023-03-17T08:06:51.254Z,8.38
2023-03-17T08:09:17.801Z,6.00
2023-03-17T08:11:44.413Z,3.35
2023-03-17T08:14:11.764Z,6.60
2023-03-17T08:16:38.348Z,3.55
2023-03-17T08:19:06.261Z,4.20
2023-03-17T08:21:32.819Z,2.58
2023-03-17T08:23:59.672Z,2.10
2023-03-17T08:26:27.021Z,7.57
2023-03-17T08:28:53.826Z,2.60
2023-03-17T08:31:22.664Z,3.75
2023-03-17T08:33:51.826Z,3.42
2023-03-17T08:36:20.648Z,2.40
2023-03-17T08:38:47.551Z,1.88
2023-03-17T08:41:18.254Z,3.70
2023-03-17T08:43:45.482Z,3.22
2023-03-17T08:46:22.546Z,1.90
2023-03-17T08:48:51.696Z,3.47
2023-03-17T08:51:21.421Z,2.53
2023-03-17T08:53:49.804Z,2.38
2023-03-17T08:56:16.910Z,3.80
2023-03-17T08:58:43.807Z,3.80
2023-03-17T09:01:13.402Z,5.00
2023-03-17T09:03:41.050Z,2.88
2023-03-17T09:06:11.619Z,2.47
2023-03-17T09:08:39.958Z,3.83
2023-03-17T09:11:07.773Z,1.85
2023-03-17T09:13:35.962Z,2.05
2023-03-17T09:16:02.725Z,3.95
2023-03-17T09:18:31.378Z,3.08
2023-03-17T09:20:58.126Z,3.72
2023-03-17T09:23:27.443Z,1.73
2023-03-17T09:25:53.976Z,3.20
2023-03-17T09:28:20.538Z,3.00
2023-03-17T09:30:47.539Z,2.17
2023-03-17T09:33:14.794Z,2.03
2023-03-17T09:35:41.525Z,1.70
2023-03-17T09:38:09.223Z,2.42
2023-03-17T09:40:54.160Z,1.45
2023-03-17T09:43:31.707Z,2.13
2023-03-17T09:46:25.055Z,2.25
2023-03-17T09:49:03.285Z,1.35
2023-03-17T09:51:32.578Z,2.25
2023-03-17T09:54:03.002Z,2.15
2023-03-17T09:56:32.708Z,1.40
2023-03-17T10:01:28.064Z,2.65
2023-03-17T10:03:54.768Z,2.40
2023-03-17T10:06:30.582Z,1.25
2023-03-17T10:09:27.201Z,2.67
2023-03-17T10:12:10.037Z,7.43
2023-03-17T10:15:07.356Z,2.75
2023-03-17T10:17:41.453Z,1.20
2023-03-17T10:20:30.155Z,3.13
2023-03-17T10:22:59.378Z,1.10
2023-03-17T10:25:30.137Z,2.50
2023-03-17T10:28:00.010Z,1.30
2023-03-17T10:30:27.382Z,2.58
2023-03-17T10:32:58.857Z,4.13
2023-03-17T10:35:26.449Z,4.25
2023-03-17T10:38:07.998Z,2.72
2023-03-17T10:40:38.514Z,1.67
2023-03-17T10:43:08.730Z,2.08
2023-03-17T10:45:40.943Z,2.28
2023-03-17T10:48:09.660Z,2.08
2023-03-17T10:50:38.240Z,2.35
2023-03-17T10:53:30.233Z,1.27
2023-03-17T10:56:08.726Z,2.90
2023-03-17T10:58:37.222Z,1.73
2023-03-17T11:01:08.758Z,2.38
2023-03-17T11:03:42.016Z,3.38
2023-03-17T11:06:11.152Z,2.47
2023-03-17T11:11:24.047Z,2.30
2023-03-17T11:13:50.604Z,1.75
2023-03-17T11:16:24.675Z,2.58
2023-03-17T11:18:58.208Z,1.65
2023-03-17T11:21:46.924Z,1.73
2023-03-17T11:24:46.099Z,2.17
2023-03-17T11:27:36.187Z,2.50
2023-03-17T11:30:35.088Z,2.42
2023-03-17T11:33:34.013Z,3.13
2023-03-17T11:36:09.676Z,1.98
2023-03-17T11:38:49.708Z,1.75
2023-03-17T11:41:31.226Z,2.83
2023-03-17T11:44:40.283Z,1.60
2023-03-17T11:47:37.674Z,1.83
2023-03-17T11:50:23.542Z,1.67
2023-03-17T11:53:20.727Z,2.97
2023-03-17T11:55:52.065Z,1.98
2023-03-17T11:58:33.604Z,1.55
2023-03-17T12:01:02.988Z,2.33
2023-03-17T12:03:30.108Z,1.75
2023-03-17T12:06:02.021Z,3.00
2023-03-17T12:08:37.780Z,2.63
2023-03-17T12:11:08.520Z,3.33
2023-03-17T12:13:40.289Z,1.33
2023-03-17T12:16:21.247Z,3.13
2023-03-17T12:18:57.970Z,6.78
2023-03-17T12:21:50.336Z,2.75
2023-03-17T12:24:26.263Z,2.17
2023-03-17T12:27:04.946Z,2.70
2023-03-17T12:29:47.345Z,2.28
2023-03-17T12:32:24.470Z,3.85
2023-03-17T12:34:57.337Z,1.63
2023-03-17T12:37:27.698Z,1.95
2023-03-17T12:40:07.177Z,3.38
2023-03-17T12:43:10.184Z,3.63
2023-03-17T12:45:48.424Z,2.00
2023-03-17T12:48:17.905Z,2.67
2023-03-17T12:51:06.393Z,3.00
2023-03-17T12:53:42.098Z,1.15
2023-03-17T12:56:17.197Z,5.22
2023-03-17T12:58:46.548Z,2.38
2023-03-17T13:01:33.744Z,3.15
2023-03-17T13:04:17.261Z,1.73
2023-03-17T13:06:58.581Z,1.60
2023-03-17T13:09:31.853Z,1.83
2023-03-17T13:12:01.178Z,3.78
2023-03-17T13:14:42.726Z,2.03
2023-03-17T13:17:19.673Z,3.17
2023-03-17T13:20:07.999Z,2.22
2023-03-17T13:22:40.507Z,1.65
2023-03-17T13:25:25.713Z,1.88
2023-03-17T13:27:52.308Z,2.30
2023-03-17T13:30:28.216Z,1.50
2023-03-17T13:33:24.782Z,6.68
2023-03-17T13:36:03.884Z,3.13
2023-03-17T13:38:42.442Z,2.15
2023-03-17T13:41:26.344Z,2.95
2023-03-17T13:44:13.586Z,2.55
2023-03-17T13:46:44.366Z,3.13
2023-03-17T13:49:21.348Z,2.78
2023-03-17T13:52:01.894Z,1.60
2023-03-17T13:54:28.740Z,3.08
2023-03-17T13:56:59.337Z,2.58
2023-03-17T13:59:34.954Z,2.53
2023-03-17T14:02:16.870Z,2.65
2023-03-17T14:05:06.164Z,4.03
2023-03-17T14:07:48.007Z,3.05
2023-03-17T14:10:21.338Z,2.00
2023-03-17T14:13:03.082Z,3.35
2023-03-17T14:15:34.952Z,2.95
2023-03-17T14:18:17.790Z,2.22
2023-03-17T14:20:54.597Z,3.75
2023-03-17T14:23:21.885Z,2.35
2023-03-17T14:25:50.430Z,2.15
2023-03-17T14:28:22.581Z,3.50
2023-03-17T14:30:55.514Z,2.88
2023-03-17T14:33:41.201Z,3.28
2023-03-17T14:36:14.082Z,2.85
2023-03-17T14:38:48.088Z,4.57
2023-03-17T14:41:14.533Z,4.93
2023-03-17T14:43:42.692Z,2.95
2023-03-17T14:46:22.156Z,2.85
2023-03-17T14:48:56.750Z,5.25
2023-03-17T14:51:23.230Z,5.72
2023-03-17T14:53:52.074Z,3.55
2023-03-17T14:56:24.192Z,3.20
2023-03-17T14:58:52.064Z,2.45
2023-03-17T15:01:36.251Z,2.28
2023-03-17T15:04:12.149Z,3.67
2023-03-17T15:06:56.244Z,2.05
2023-03-17T15:09:36.557Z,3.15
2023-03-17T15:12:23.125Z,3.35
2023-03-17T15:14:53.517Z,4.45
2023-03-17T15:17:29.024Z,2.10
2023-03-17T15:20:00.409Z,4.07
2023-03-17T15:22:34.718Z,2.88
2023-03-17T15:25:04.622Z,3.20
2023-03-17T15:27:32.237Z,4.88
2023-03-17T15:29:58.823Z,2.70
2023-03-17T15:32:27.129Z,2.55
2023-03-17T15:34:58.934Z,3.97
2023-03-17T15:37:27.017Z,3.72
2023-03-17T15:39:55.761Z,7.82
2023-03-17T15:42:25.377Z,2.55
2023-03-17T15:44:53.050Z,3.13
2023-03-17T15:47:22.270Z,3.03
2023-03-17T15:49:50.553Z,2.40
2023-03-17T15:52:21.508Z,3.63
2023-03-17T15:54:48.845Z,2.20
2023-03-17T15:57:15.685Z,3.00
2023-03-17T15:59:42.204Z,2.60
2023-03-17T16:02:36.362Z,3.28
2023-03-17T16:05:15.706Z,2.80
2023-03-17T16:07:42.848Z,2.28
2023-03-17T16:10:18.452Z,3.67
2023-03-17T16:12:45.141Z,3.90
2023-03-17T16:15:22.914Z,2.50
2023-03-17T16:17:52.448Z,2.20
2023-03-17T16:20:28.274Z,3.20
2023-03-17T16:22:58.507Z,3.25
2023-03-17T16:25:27.930Z,3.08
2023-03-17T16:27:56.619Z,3.42
2023-03-17T16:30:27.197Z,3.22
2023-03-17T16:32:54.526Z,2.20
2023-03-17T16:35:23.694Z,2.35
2023-03-17T16:37:52.389Z,3.87
2023-03-17T16:40:27.910Z,5.68
2023-03-17T16:42:55.230Z,2.10
2023-03-17T16:45:22.046Z,4.60
2023-03-17T16:47:49.744Z,3.60
2023-03-17T16:50:22.040Z,13.82
2023-03-17T16:52:48.630Z,3.58
2023-03-17T16:55:15.749Z,2.85
2023-03-17T16:57:45.171Z,4.45
2023-03-17T17:00:17.196Z,3.60
2023-03-17T17:02:45.084Z,3.50
2023-03-17T17:05:19.752Z,2.55
2023-03-17T17:07:47.859Z,2.83
2023-03-17T17:10:16.519Z,2.13
2023-03-17T17:12:43.319Z,4.30
2023-03-17T17:15:11.801Z,2.40
2023-03-17T17:17:40.585Z,5.95
2023-03-17T17:20:20.200Z,3.40
2023-03-17T17:22:47.260Z,4.35
2023-03-17T17:25:13.825Z,3.75
2023-03-17T17:27:42.614Z,3.97
2023-03-17T17:30:12.757Z,3.72
2023-03-17T17:35:07.066Z,6.32
2023-03-17T17:37:34.004Z,6.00
2023-03-17T17:40:00.758Z,5.55
2023-03-17T17:42:27.380Z,7.97
2023-03-17T17:44:53.894Z,4.95
2023-03-17T17:47:20.485Z,4.65
2023-03-17T17:49:47.009Z,5.03
2023-03-17T17:52:13.562Z,4.78
2023-03-17T17:54:40.056Z,5.95
2023-03-17T17:57:07.029Z,7.25
2023-03-17T17:59:33.562Z,5.80
2023-03-17T18:02:01.143Z,4.35
2023-03-17T18:04:27.717Z,5.68
2023-03-17T18:06:54.254Z,4.32
2023-03-17T18:09:21.659Z,4.18
2023-03-17T18:11:49.003Z,3.33
2023-03-17T18:14:15.855Z,4.78
2023-03-17T18:16:42.414Z,4.68
2023-03-17T18:19:11.282Z,7.97
2023-03-17T18:21:37.764Z,7.45
2023-03-17T18:24:05.546Z,4.70
2023-03-17T18:26:33.134Z,6.95
2023-03-17T18:28:59.930Z,5.32
2023-03-17T18:31:33.968Z,8.20
2023-03-17T18:34:08.584Z,4.43
2023-03-17T18:36:35.687Z,4.78
2023-03-17T18:39:02.296Z,9.10
2023-03-17T18:41:28.831Z,5.00
2023-03-17T18:43:55.421Z,5.07
2023-03-17T18:46:23.071Z,7.82
2023-03-17T18:48:49.643Z,6.05
2023-03-17T18:51:16.191Z,5.68
2023-03-17T18:53:42.780Z,6.40
2023-03-17T18:56:09.438Z,10.10
2023-03-17T18:58:36.307Z,29.73
2023-03-17T19:01:03.765Z,33.97
2023-03-17T19:03:32.357Z,32.97
2023-03-17T19:06:08.187Z,23.70
2023-03-17T19:08:34.657Z,17.63
2023-03-17T19:11:01.664Z,14.40
2023-03-17T19:13:28.166Z,9.40
2023-03-17T19:15:55.720Z,6.38
2023-03-17T19:18:22.198Z,12.10
2023-03-17T19:20:48.759Z,13.63
2023-03-17T19:23:15.504Z,8.45
2023-03-17T19:25:42.179Z,6.97
2023-03-17T19:28:08.978Z,5.78
2023-03-17T19:30:35.873Z,7.40
2023-03-17T19:33:02.542Z,7.20
2023-03-17T19:35:29.083Z,6.75
2023-03-17T19:37:56.416Z,5.65
2023-03-17T19:40:23.162Z,5.63
2023-03-17T19:42:50.662Z,7.15
2023-03-17T19:45:17.179Z,9.15
2023-03-17T19:47:43.671Z,11.25
2023-03-17T19:50:11.114Z,10.38
2023-03-17T19:52:37.672Z,7.07
2023-03-17T19:55:07.014Z,7.82
2023-03-17T19:57:35.446Z,7.00
2023-03-17T20:00:02.637Z,7.00
2023-03-17T20:02:29.153Z,7.05
2023-03-17T20:04:55.779Z,5.30
2023-03-17T20:07:22.519Z,5.95
2023-03-17T20:09:49.390Z,4.78
2023-03-17T20:12:16.083Z,5.70
2023-03-17T20:14:42.820Z,5.20
2023-03-17T20:17:10.011Z,5.90
2023-03-17T20:19:39.268Z,4.63
2023-03-17T20:22:07.171Z,6.27
2023-03-17T20:24:34.677Z,6.47
2023-03-17T20:27:02.805Z,5.10
2023-03-17T20:29:29.584Z,5.28
2023-03-17T20:31:56.383Z,5.82
2023-03-17T20:34:23.671Z,10.27
2023-03-17T20:36:51.382Z,8.02
2023-03-17T20:39:20.909Z,7.93
2023-03-17T20:41:48.730Z,7.55
2023-03-17T20:44:16.527Z,9.57
2023-03-17T20:46:43.419Z,6.93
2023-03-17T20:49:11.099Z,5.75
2023-03-17T20:51:39.354Z,5.90
2023-03-17T20:54:08.333Z,6.68
2023-03-17T20:56:35.003Z,7.75
2023-03-17T20:59:04.988Z,7.28
2023-03-17T21:04:00.165Z,7.05
2023-03-17T21:06:28.549Z,6.03
2023-03-17T21:08:56.164Z,6.07
2023-03-17T21:11:23.220Z,8.52
2023-03-17T21:13:49.983Z,7.78
2023-03-17T21:16:21.847Z,6.78
2023-03-17T21:18:48.640Z,7.55
2023-03-17T21:21:16.511Z,6.75
2023-03-17T21:23:43.386Z,6.57
2023-03-17T21:26:10.912Z,7.90
2023-03-17T21:28:41.365Z,6.32
2023-03-17T21:31:09.061Z,8.30
2023-03-17T21:33:35.630Z,7.03
2023-03-17T21:36:02.441Z,10.02
2023-03-17T21:38:29.754Z,6.88
2023-03-17T21:40:57.260Z,7.07
2023-03-17T21:43:24.333Z,5.25
2023-03-17T21:45:51.526Z,7.53
2023-03-17T21:48:18.116Z,7.25
2023-03-17T21:50:44.690Z,5.68
2023-03-17T21:53:14.764Z,5.80
2023-03-17T21:55:41.454Z,6.55
2023-03-17T21:58:08.727Z,6.70
2023-03-17T22:00:44.696Z,7.68
2023-03-17T22:03:12.293Z,5.93
2023-03-17T22:05:38.804Z,6.10
2023-03-17T22:08:05.576Z,6.68
2023-03-17T22:10:32.390Z,4.82
2023-03-17T22:12:59.029Z,5.57
2023-03-17T22:15:25.771Z,7.95
2023-03-17T22:17:53.137Z,5.72
2023-03-17T22:20:19.719Z,13.00
2023-03-17T22:22:46.256Z,5.45
2023-03-17T22:25:12.790Z,3.70
2023-03-17T22:27:39.271Z,5.75
2023-03-17T22:30:06.463Z,7.07
2023-03-17T22:32:33.359Z,5.78
2023-03-17T22:35:00.233Z,6.03
2023-03-17T22:37:27.863Z,6.43
2023-03-17T22:39:54.376Z,6.57
2023-03-17T22:42:21.059Z,4.97
2023-03-17T22:44:47.646Z,4.97
2023-03-17T22:47:14.160Z,6.82
2023-03-17T22:49:40.955Z,10.25
2023-03-17T22:52:08.610Z,8.57
2023-03-17T22:54:35.123Z,7.25
2023-03-17T22:57:01.641Z,9.02
2023-03-17T22:59:28.131Z,7.78
2023-03-17T23:01:54.692Z,7.72
2023-03-17T23:04:21.201Z,6.32
2023-03-17T23:06:48.812Z,7.18
2023-03-17T23:09:15.678Z,6.65
2023-03-17T23:11:42.765Z,6.65
2023-03-17T23:14:09.324Z,7.28
2023-03-17T23:16:37.651Z,11.65
2023-03-17T23:19:05.027Z,10.27
2023-03-17T23:21:34.682Z,6.38
2023-03-17T23:24:02.152Z,7.78
2023-03-17T23:26:29.063Z,10.02
2023-03-17T23:28:56.597Z,6.70
2023-03-17T23:31:23.343Z,5.65
2023-03-17T23:33:50.484Z,8.43
2023-03-17T23:36:18.068Z,11.95
2023-03-17T23:38:45.553Z,13.07
2023-03-17T23:41:13.086Z,8.75
2023-03-17T23:43:40.397Z,6.75
2023-03-17T23:46:07.209Z,5.55
2023-03-17T23:48:33.977Z,5.70
2023-03-17T23:51:01.097Z,7.57
2023-03-17T23:53:29.401Z,6.07
2023-03-17T23:55:55.950Z,5.53
2023-03-17T23:58:22.899Z,6.25
